Aeroporto :
LOGIN :

Iscrizione | Disclaimer

   EN    FR    IT 

 










Sommario :    VFR   VFR Marginale   IFR   IFR Intensivo   IFR Molto Intensivo
Visibilità : 
Base nubi : 
>= 8 km
>= 3000ft
5 / 8 km
1000 / 3000 ft
1500m / 5 km
500 / 1000 ft
800 / 1500m
200 / 500 ft
< 800m
< 200 ft
Simboli :   Temporali  Nebbia  Neve Forte  Precipitazioni Forti  Vento > 20 kt
SIGMETs :   Varie  Temporali  Ghiacco  Turbolenza  Onda orograficha  Ceneri Vulcaniche






- Altitudine del aeroporto : 682 ft
- Codice IATA : VTB


UMII - Vitebsk

ULTIMO METAR :
  • 041800Z 28005MPS 9999 SCT036CB 04/M03 Q1021 R05/D TEMPO 2000 SHRA BKN005

METARs OBSOLETI :
  • 041730Z 27003G06MPS 9999 BKN035CB 05/M03 Q1021 R23/D TEMPO 2000 SHRA BKN005
  • 041700Z 25006G09MPS 9999 BKN035CB 05/M03 Q1020 R23/D TEMPO 2000 SHRA BKN005

TAF TAF UMII
Valido dal 04 a 18 ore il 05 a 03 ore UTC


041702Z 0418/0503 28003G08MPS 6000 BKN007
TEMPO 0418/0503 VRB10MPS 2000 SHRA BKN005 BKN012CB



MetMap, La meteo Aeronautica in un colpo d'occhio ! - Copyright ORBIFLY Dicembre 2007 - Disclaimer

ORBIFLY MET'MAP TEAM :

Programmazione e sviluppo : Alexandra Zaïnal
Concezione : Baudouin d'Aumeries
Aiuto per la programmazione : Marc-Olivier Méhu
Supporto tecnico e logistico : Manuel Goepfert
Aiuto per la traduzione : Arnaldo La Scala

Contatto : metmap@orbifly.com




FONTI E CREDITI :

   NOAA